createdAt,value
2018-02-25T00:01:40.600Z,2.63
2018-02-25T00:04:06.628Z,3.10
2018-02-25T00:06:32.647Z,3.00
2018-02-25T00:08:58.732Z,2.80
2018-02-25T00:11:24.731Z,2.50
2018-02-25T00:13:50.815Z,2.77
2018-02-25T00:16:16.844Z,2.40
2018-02-25T00:18:42.878Z,2.70
2018-02-25T00:21:08.918Z,2.73
2018-02-25T00:23:34.906Z,2.73
2018-02-25T00:26:00.996Z,2.50
2018-02-25T00:28:26.994Z,2.80
2018-02-25T00:30:53.008Z,2.63
2018-02-25T00:33:19.054Z,2.97
2018-02-25T00:35:45.058Z,2.60
2018-02-25T00:38:11.458Z,2.53
2018-02-25T00:40:37.543Z,2.90
2018-02-25T00:43:03.582Z,2.67
2018-02-25T00:45:29.627Z,3.03
2018-02-25T00:47:55.663Z,2.53
2018-02-25T00:50:21.699Z,2.77
2018-02-25T00:52:47.719Z,2.80
2018-02-25T00:55:13.803Z,2.67
2018-02-25T00:57:39.866Z,2.90
2018-02-25T01:00:06.159Z,2.50
2018-02-25T01:02:32.147Z,2.60
2018-02-25T01:04:58.162Z,2.90
2018-02-25T01:07:24.554Z,2.60
2018-02-25T01:09:50.632Z,2.70
2018-02-25T01:12:16.646Z,2.57
2018-02-25T01:14:42.658Z,3.07
2018-02-25T01:17:08.656Z,3.17
2018-02-25T01:19:34.747Z,2.80
2018-02-25T01:22:00.753Z,2.60
2018-02-25T01:24:26.751Z,2.93
2018-02-25T01:26:52.741Z,2.90
2018-02-25T01:29:18.777Z,2.57
2018-02-25T01:31:44.824Z,3.13
2018-02-25T01:34:10.896Z,2.30
2018-02-25T01:36:36.950Z,2.40
2018-02-25T01:39:02.930Z,3.10
2018-02-25T01:41:28.939Z,2.77
2018-02-25T01:43:54.983Z,2.97
2018-02-25T01:46:21.030Z,2.50
2018-02-25T01:48:47.821Z,3.00
2018-02-25T01:51:14.220Z,2.67
2018-02-25T01:53:40.211Z,2.90
2018-02-25T01:56:06.230Z,2.70
2018-02-25T01:58:32.275Z,3.20
2018-02-25T02:00:58.331Z,2.63
2018-02-25T02:03:24.350Z,3.10
2018-02-25T02:05:50.602Z,3.13
2018-02-25T02:08:16.666Z,2.70
2018-02-25T02:10:43.390Z,3.10
2018-02-25T02:13:09.744Z,2.70
2018-02-25T02:15:35.771Z,3.13
2018-02-25T02:18:02.722Z,3.20
2018-02-25T02:20:28.739Z,2.87
2018-02-25T02:22:54.723Z,2.90
2018-02-25T02:25:20.767Z,2.80
2018-02-25T02:27:46.810Z,3.10
2018-02-25T02:30:12.827Z,3.47
2018-02-25T02:32:38.835Z,3.40
2018-02-25T02:35:04.850Z,2.60
2018-02-25T02:37:30.939Z,3.07
2018-02-25T02:39:56.964Z,3.73
2018-02-25T02:42:23.007Z,3.00
2018-02-25T02:44:48.994Z,3.50
2018-02-25T02:47:14.996Z,3.10
2018-02-25T02:49:41.095Z,3.00
2018-02-25T02:52:07.107Z,3.17
2018-02-25T02:54:33.130Z,3.43
2018-02-25T02:56:59.182Z,3.40
2018-02-25T02:59:26.250Z,3.13
2018-02-25T03:01:52.283Z,3.53
2018-02-25T03:04:18.350Z,3.00
2018-02-25T03:06:44.383Z,3.90
2018-02-25T03:09:10.651Z,3.70
2018-02-25T03:11:36.699Z,3.83
2018-02-25T03:14:02.727Z,3.30
2018-02-25T03:16:29.541Z,3.00
2018-02-25T03:18:55.563Z,3.23
2018-02-25T03:21:21.787Z,3.30
2018-02-25T03:23:47.803Z,3.17
2018-02-25T03:26:13.866Z,3.20
2018-02-25T03:28:39.910Z,3.50
2018-02-25T03:31:05.952Z,3.33
2018-02-25T03:33:31.959Z,4.03
2018-02-25T03:35:57.953Z,3.40
2018-02-25T03:38:24.427Z,3.53
2018-02-25T03:40:50.555Z,3.63
2018-02-25T03:43:16.589Z,2.83
2018-02-25T03:45:42.604Z,3.37
2018-02-25T03:48:08.606Z,3.50
2018-02-25T03:50:35.057Z,3.40
2018-02-25T03:53:01.079Z,3.17
2018-02-25T03:55:27.353Z,3.93
2018-02-25T03:57:53.580Z,3.80
2018-02-25T04:00:19.646Z,3.20
2018-02-25T04:02:45.675Z,3.63
2018-02-25T04:05:11.692Z,3.40
2018-02-25T04:07:37.998Z,3.63
2018-02-25T04:10:04.023Z,4.17
2018-02-25T04:12:30.043Z,3.90
2018-02-25T04:14:56.127Z,3.67
2018-02-25T04:17:22.151Z,3.90
2018-02-25T04:19:48.156Z,3.70
2018-02-25T04:22:14.635Z,3.70
2018-02-25T04:24:40.659Z,4.60
2018-02-25T04:27:06.715Z,4.30
2018-02-25T04:29:32.713Z,4.40
2018-02-25T04:31:58.730Z,4.60
2018-02-25T04:34:24.746Z,4.23
2018-02-25T04:36:50.818Z,4.30
2018-02-25T04:39:17.423Z,4.30
2018-02-25T04:41:43.418Z,4.77
2018-02-25T04:44:09.454Z,4.23
2018-02-25T04:46:35.599Z,4.37
2018-02-25T04:49:01.910Z,3.83
2018-02-25T04:51:27.921Z,4.17
2018-02-25T04:53:53.934Z,4.23
2018-02-25T04:56:19.970Z,4.60
2018-02-25T04:58:45.979Z,5.17
2018-02-25T05:01:12.059Z,4.60
2018-02-25T05:03:38.104Z,4.53
2018-02-25T05:06:04.138Z,4.20
2018-02-25T05:08:30.199Z,3.57
2018-02-25T05:10:56.251Z,4.10
2018-02-25T05:13:22.275Z,3.90
2018-02-25T05:15:48.315Z,4.60
2018-02-25T05:18:14.327Z,4.43
2018-02-25T05:20:40.357Z,4.60
2018-02-25T05:23:06.358Z,4.40
2018-02-25T05:25:32.872Z,3.40
2018-02-25T05:27:59.132Z,4.30
2018-02-25T05:30:27.188Z,4.60
2018-02-25T05:32:53.611Z,4.90
2018-02-25T05:35:19.639Z,4.90
2018-02-25T05:37:45.655Z,4.43
2018-02-25T05:40:11.650Z,5.50
2018-02-25T05:42:37.677Z,4.57
2018-02-25T05:45:03.704Z,4.47
2018-02-25T05:47:29.734Z,4.17
2018-02-25T05:49:55.804Z,4.90
2018-02-25T05:52:22.214Z,4.60
2018-02-25T05:54:48.291Z,5.07
2018-02-25T05:57:14.285Z,4.27
2018-02-25T05:59:40.305Z,4.57
2018-02-25T06:02:06.713Z,5.13
2018-02-25T06:04:32.735Z,4.83
2018-02-25T06:06:58.786Z,4.63
2018-02-25T06:09:24.810Z,4.90
2018-02-25T06:11:50.882Z,4.73
2018-02-25T06:14:17.023Z,5.13
2018-02-25T06:16:43.058Z,3.60
2018-02-25T06:19:09.126Z,5.53
2018-02-25T06:21:35.203Z,5.17
2018-02-25T06:24:02.011Z,4.13
2018-02-25T06:26:29.131Z,5.17
2018-02-25T06:28:55.169Z,5.03
2018-02-25T06:31:21.199Z,5.00
2018-02-25T06:33:47.210Z,4.37
2018-02-25T06:36:13.210Z,4.83
2018-02-25T06:38:39.246Z,5.10
2018-02-25T06:41:05.254Z,5.37
2018-02-25T06:43:31.797Z,5.37
2018-02-25T06:45:57.799Z,4.83
2018-02-25T06:48:23.817Z,5.00
2018-02-25T06:50:49.890Z,5.30
2018-02-25T06:53:15.902Z,5.80
2018-02-25T06:55:41.941Z,5.27
2018-02-25T06:58:07.952Z,4.27
2018-02-25T07:00:33.952Z,5.37
2018-02-25T07:03:00.152Z,4.43
2018-02-25T07:05:26.184Z,6.03
2018-02-25T07:07:52.248Z,5.40
2018-02-25T07:10:18.311Z,4.87
2018-02-25T07:12:44.303Z,5.83
2018-02-25T07:15:10.338Z,4.83
2018-02-25T07:17:36.482Z,5.20
2018-02-25T07:20:02.749Z,6.40
2018-02-25T07:22:28.755Z,5.27
2018-02-25T07:24:54.915Z,4.23
2018-02-25T07:27:21.127Z,5.37
2018-02-25T07:29:47.193Z,4.70
2018-02-25T07:32:13.295Z,4.70
2018-02-25T07:34:39.320Z,4.97
2018-02-25T07:37:05.367Z,5.03
2018-02-25T07:39:31.418Z,5.23
2018-02-25T07:41:58.404Z,4.60
2018-02-25T07:44:24.434Z,4.40
2018-02-25T07:46:50.527Z,5.67
2018-02-25T07:49:17.354Z,4.93
2018-02-25T07:51:43.378Z,4.20
2018-02-25T07:54:10.679Z,5.57
2018-02-25T07:56:36.702Z,4.67
2018-02-25T07:59:02.755Z,4.57
2018-02-25T08:01:28.751Z,4.93
2018-02-25T08:03:54.814Z,4.40
2018-02-25T08:06:20.838Z,4.97
2018-02-25T08:08:46.834Z,4.83
2018-02-25T08:11:12.873Z,5.03
2018-02-25T08:13:38.939Z,3.77
2018-02-25T08:16:04.920Z,5.03
2018-02-25T08:18:30.911Z,5.00
2018-02-25T08:20:57.225Z,4.03
2018-02-25T08:23:23.241Z,4.90
2018-02-25T08:25:49.263Z,4.67
2018-02-25T08:28:15.874Z,5.07
2018-02-25T08:30:41.904Z,4.77
2018-02-25T08:33:08.933Z,5.30
2018-02-25T08:35:35.314Z,5.30
2018-02-25T08:38:01.319Z,4.97
2018-02-25T08:40:28.099Z,5.10
2018-02-25T08:42:54.116Z,4.40
2018-02-25T08:45:20.114Z,4.30
2018-02-25T08:47:46.138Z,4.27
2018-02-25T08:50:12.149Z,5.10
2018-02-25T08:52:38.715Z,4.53
2018-02-25T08:55:04.711Z,4.80
2018-02-25T08:57:31.706Z,5.20
2018-02-25T08:59:57.723Z,4.83
2018-02-25T09:02:23.722Z,5.20
2018-02-25T09:04:49.762Z,5.10
2018-02-25T09:07:15.823Z,4.00
2018-02-25T09:09:41.820Z,4.87
2018-02-25T09:12:07.850Z,5.20
2018-02-25T09:14:35.085Z,4.97
2018-02-25T09:17:01.110Z,3.87
2018-02-25T09:19:27.119Z,4.73
2018-02-25T09:21:53.134Z,5.30
2018-02-25T09:24:19.237Z,4.67
2018-02-25T09:26:45.987Z,4.63
2018-02-25T09:29:11.998Z,4.57
2018-02-25T09:31:38.077Z,3.97
2018-02-25T09:34:04.090Z,4.90
2018-02-25T09:36:31.039Z,4.63
2018-02-25T09:38:57.050Z,4.33
2018-02-25T09:41:23.124Z,4.70
2018-02-25T09:43:49.083Z,4.63
2018-02-25T09:46:15.106Z,5.43
2018-02-25T09:48:41.117Z,4.47
2018-02-25T09:51:07.867Z,4.43
2018-02-25T09:53:33.862Z,4.83
2018-02-25T09:55:59.891Z,3.93
2018-02-25T09:58:26.342Z,4.23
2018-02-25T10:00:52.362Z,5.17
2018-02-25T10:03:18.415Z,5.20
2018-02-25T10:05:44.484Z,4.73
2018-02-25T10:08:11.378Z,3.77
2018-02-25T10:10:37.398Z,4.63
2018-02-25T10:13:03.411Z,4.97
2018-02-25T10:15:29.458Z,5.57
2018-02-25T10:17:55.474Z,4.93
2018-02-25T10:20:21.495Z,5.00
2018-02-25T10:22:47.517Z,4.50
2018-02-25T10:25:13.555Z,5.10
2018-02-25T10:27:39.595Z,5.17
2018-02-25T10:30:05.603Z,4.90
2018-02-25T10:32:31.639Z,5.10
2018-02-25T10:34:57.657Z,4.80
2018-02-25T10:37:23.663Z,5.20
2018-02-25T10:39:50.767Z,5.20
2018-02-25T10:42:17.779Z,5.10
2018-02-25T10:44:43.798Z,4.63
2018-02-25T10:47:10.128Z,5.27
2018-02-25T10:49:37.738Z,5.23
2018-02-25T10:52:03.764Z,5.77
2018-02-25T10:54:29.803Z,5.10
2018-02-25T10:56:55.889Z,4.50
2018-02-25T10:59:21.887Z,3.80
2018-02-25T11:01:47.894Z,4.87
2018-02-25T11:04:13.890Z,4.50
2018-02-25T11:06:39.941Z,4.80
2018-02-25T11:09:06.031Z,4.90
2018-02-25T11:11:32.020Z,3.93
2018-02-25T11:13:58.329Z,4.30
2018-02-25T11:16:24.336Z,3.73
2018-02-25T11:18:50.383Z,4.73
2018-02-25T11:21:16.487Z,4.80
2018-02-25T11:23:42.495Z,4.20
2018-02-25T11:26:08.493Z,3.93
2018-02-25T11:28:34.686Z,4.93
2018-02-25T11:31:00.723Z,4.40
2018-02-25T11:33:26.742Z,4.20
2018-02-25T11:35:52.794Z,4.53
2018-02-25T11:38:18.865Z,3.87
2018-02-25T11:40:44.991Z,4.43
2018-02-25T11:43:11.007Z,3.63
2018-02-25T11:45:37.071Z,3.57
2018-02-25T11:48:03.098Z,4.50
2018-02-25T11:50:29.163Z,4.07
2018-02-25T11:52:55.162Z,4.50
2018-02-25T11:55:21.201Z,3.50
2018-02-25T11:57:47.258Z,3.17
2018-02-25T12:00:13.266Z,4.23
2018-02-25T12:02:39.275Z,3.73
2018-02-25T12:05:05.455Z,3.67
2018-02-25T12:07:31.464Z,4.00
2018-02-25T12:09:57.537Z,3.90
2018-02-25T12:12:23.540Z,4.87
2018-02-25T12:14:49.558Z,4.20
2018-02-25T12:17:15.599Z,3.57
2018-02-25T12:19:41.604Z,4.33
2018-02-25T12:22:07.656Z,4.40
2018-02-25T12:24:33.675Z,3.33
2018-02-25T12:27:00.130Z,3.43
2018-02-25T12:29:26.146Z,3.83
2018-02-25T12:31:52.139Z,3.40
2018-02-25T12:34:18.894Z,3.67
2018-02-25T12:36:45.654Z,3.90
2018-02-25T12:39:11.647Z,3.70
2018-02-25T12:41:37.635Z,4.03
2018-02-25T12:44:03.643Z,5.07
2018-02-25T12:46:30.004Z,3.93
2018-02-25T12:48:56.017Z,3.20
2018-02-25T12:51:22.023Z,3.17
2018-02-25T12:53:48.640Z,4.23
2018-02-25T12:56:14.640Z,4.00
2018-02-25T12:58:40.695Z,3.50
2018-02-25T13:01:06.709Z,3.40
2018-02-25T13:03:32.714Z,3.60
2018-02-25T13:05:58.730Z,3.90
2018-02-25T13:08:24.757Z,3.83
2018-02-25T13:10:50.922Z,3.40
2018-02-25T13:13:16.934Z,3.77
2018-02-25T13:15:42.966Z,4.20
2018-02-25T13:18:09.125Z,4.10
2018-02-25T13:20:35.138Z,4.17
2018-02-25T13:23:01.160Z,4.00
2018-02-25T13:25:27.155Z,3.17
2018-02-25T13:27:53.227Z,3.73
2018-02-25T13:30:19.543Z,3.97
2018-02-25T13:32:45.581Z,3.30
2018-02-25T13:35:11.619Z,3.83
2018-02-25T13:37:37.614Z,3.77
2018-02-25T13:40:03.664Z,3.07
2018-02-25T13:42:29.675Z,3.43
2018-02-25T13:44:55.723Z,4.03
2018-02-25T13:47:21.777Z,3.63
2018-02-25T13:49:47.771Z,3.13
2018-02-25T13:52:13.832Z,3.43
2018-02-25T13:54:39.847Z,3.27
2018-02-25T13:57:05.889Z,3.07
2018-02-25T13:59:31.882Z,3.73
2018-02-25T14:01:57.894Z,3.70
2018-02-25T14:04:23.946Z,3.53
2018-02-25T14:06:50.263Z,3.10
2018-02-25T14:09:16.290Z,3.07
2018-02-25T14:11:42.331Z,3.10
2018-02-25T14:14:08.332Z,3.10
2018-02-25T14:16:34.712Z,3.67
2018-02-25T14:19:00.724Z,3.80
2018-02-25T14:21:26.714Z,3.23
2018-02-25T14:23:52.726Z,3.13
2018-02-25T14:26:18.851Z,3.20
2018-02-25T14:28:45.631Z,2.80
2018-02-25T14:31:12.047Z,3.50
2018-02-25T14:33:38.069Z,2.90
2018-02-25T14:36:04.158Z,3.40
2018-02-25T14:38:30.232Z,3.10
2018-02-25T14:40:56.292Z,3.67
2018-02-25T14:43:22.300Z,3.70
2018-02-25T14:45:48.307Z,3.17
2018-02-25T14:48:14.338Z,3.30
2018-02-25T14:50:40.343Z,3.00
2018-02-25T14:53:06.374Z,3.10
2018-02-25T14:55:32.386Z,3.20
2018-02-25T14:57:58.410Z,2.83
2018-02-25T15:00:24.444Z,3.27
2018-02-25T15:02:50.601Z,2.80
2018-02-25T15:05:16.703Z,2.73
2018-02-25T15:07:42.699Z,2.90
2018-02-25T15:10:08.729Z,2.80
2018-02-25T15:12:34.759Z,3.03
2018-02-25T15:15:00.749Z,2.77
2018-02-25T15:17:26.803Z,2.83
2018-02-25T15:19:52.822Z,2.60
2018-02-25T15:22:18.886Z,3.07
2018-02-25T15:24:44.874Z,2.70
2018-02-25T15:27:10.941Z,2.20
2018-02-25T15:29:36.962Z,2.57
2018-02-25T15:32:02.968Z,2.80
2018-02-25T15:34:29.378Z,2.40
2018-02-25T15:36:55.372Z,2.90
2018-02-25T15:39:22.135Z,2.50
2018-02-25T15:41:48.155Z,2.60
2018-02-25T15:44:14.179Z,2.37
2018-02-25T15:46:40.182Z,2.17
2018-02-25T15:49:06.175Z,2.30
2018-02-25T15:51:32.194Z,2.80
2018-02-25T15:53:58.864Z,2.57
2018-02-25T15:56:24.903Z,2.30
2018-02-25T15:58:50.937Z,2.33
2018-02-25T16:01:16.927Z,2.43
2018-02-25T16:03:42.922Z,2.40
2018-02-25T16:06:09.641Z,2.40
2018-02-25T16:08:35.683Z,3.00
2018-02-25T16:11:01.690Z,2.47
2018-02-25T16:13:27.739Z,2.30
2018-02-25T16:15:53.762Z,2.50
2018-02-25T16:18:19.839Z,2.30
2018-02-25T16:20:45.895Z,2.27
2018-02-25T16:23:11.935Z,2.40
2018-02-25T16:25:37.934Z,2.10
2018-02-25T16:28:04.850Z,2.50
2018-02-25T16:30:30.914Z,2.23
2018-02-25T16:32:56.950Z,2.70
2018-02-25T16:35:23.249Z,2.27
2018-02-25T16:37:49.245Z,2.10
2018-02-25T16:40:15.258Z,2.33
2018-02-25T16:42:42.479Z,2.20
2018-02-25T16:45:08.548Z,2.33
2018-02-25T16:47:35.369Z,2.80
2018-02-25T16:50:01.403Z,2.77
2018-02-25T16:52:28.160Z,2.90
2018-02-25T16:54:54.282Z,2.50
2018-02-25T16:57:20.275Z,2.80
2018-02-25T16:59:46.263Z,2.20
2018-02-25T17:02:12.314Z,3.10
2018-02-25T17:04:38.354Z,2.83
2018-02-25T17:07:05.127Z,3.00
2018-02-25T17:09:31.137Z,2.50
2018-02-25T17:11:57.136Z,2.90
2018-02-25T17:14:23.150Z,2.40
2018-02-25T17:16:49.210Z,1.90
2018-02-25T17:19:15.313Z,2.50
2018-02-25T17:21:42.047Z,2.47
2018-02-25T17:24:08.180Z,2.50
2018-02-25T17:26:34.974Z,2.70
2018-02-25T17:29:01.069Z,2.57
2018-02-25T17:31:27.661Z,2.63
2018-02-25T17:33:54.234Z,2.83
2018-02-25T17:36:20.254Z,2.73
2018-02-25T17:38:46.295Z,2.60
2018-02-25T17:41:12.475Z,3.10
2018-02-25T17:43:38.634Z,2.33
2018-02-25T17:46:04.887Z,3.17
2018-02-25T17:48:30.944Z,2.77
2018-02-25T17:50:56.950Z,2.90
2018-02-25T17:53:22.962Z,2.73
2018-02-25T17:55:49.117Z,2.67
2018-02-25T17:58:15.056Z,2.67
2018-02-25T18:00:41.672Z,2.67
2018-02-25T18:03:08.188Z,3.17
2018-02-25T18:05:34.222Z,3.17
2018-02-25T18:08:00.319Z,3.30
2018-02-25T18:10:26.711Z,2.60
2018-02-25T18:12:52.698Z,3.10
2018-02-25T18:15:18.758Z,2.60
2018-02-25T18:17:44.910Z,3.17
2018-02-25T18:20:11.137Z,3.00
2018-02-25T18:22:37.206Z,3.30
2018-02-25T18:25:03.300Z,3.23
2018-02-25T18:27:29.374Z,2.90
2018-02-25T18:29:55.440Z,3.00
2018-02-25T18:32:21.514Z,2.93
2018-02-25T18:34:47.556Z,2.80
2018-02-25T18:37:13.578Z,2.97
2018-02-25T18:39:39.610Z,2.40
2018-02-25T18:42:05.747Z,2.50
2018-02-25T18:44:31.883Z,2.37
2018-02-25T18:46:57.936Z,2.80
2018-02-25T18:49:23.986Z,3.80
2018-02-25T18:51:50.651Z,3.20
2018-02-25T18:54:17.342Z,2.97
2018-02-25T18:56:43.390Z,2.63
2018-02-25T18:59:09.624Z,2.97
2018-02-25T19:01:35.733Z,3.20
2018-02-25T19:04:01.864Z,2.70
2018-02-25T19:06:27.940Z,3.17
2018-02-25T19:08:54.352Z,2.97
2018-02-25T19:11:21.162Z,2.87
2018-02-25T19:13:47.256Z,3.00
2018-02-25T19:16:13.304Z,3.00
2018-02-25T19:18:39.418Z,3.30
2018-02-25T19:21:05.535Z,2.57
2018-02-25T19:23:31.632Z,2.70
2018-02-25T19:25:57.819Z,3.03
2018-02-25T19:28:23.889Z,3.63
2018-02-25T19:30:49.987Z,2.93
2018-02-25T19:33:15.984Z,2.90
2018-02-25T19:35:49.343Z,3.90
2018-02-25T19:38:21.338Z,3.57
2018-02-25T19:40:53.426Z,3.20
2018-02-25T19:43:19.904Z,3.80
2018-02-25T19:45:45.902Z,2.93
2018-02-25T19:48:11.894Z,3.03
2018-02-25T19:50:37.987Z,3.20
2018-02-25T19:53:04.043Z,2.93
2018-02-25T19:55:30.105Z,2.70
2018-02-25T19:57:56.991Z,2.97
2018-02-25T20:00:23.003Z,2.73
2018-02-25T20:02:49.034Z,2.80
2018-02-25T20:05:15.556Z,3.00
2018-02-25T20:07:41.574Z,3.30
2018-02-25T20:10:08.008Z,2.83
2018-02-25T20:12:34.030Z,2.60
2018-02-25T20:15:00.083Z,2.13
2018-02-25T20:17:26.278Z,3.13
2018-02-25T20:19:52.330Z,2.57
2018-02-25T20:22:18.859Z,2.80
2018-02-25T20:24:45.380Z,2.80
2018-02-25T20:27:11.607Z,2.50
2018-02-25T20:29:37.606Z,3.00
2018-02-25T20:32:03.699Z,2.47
2018-02-25T20:34:29.707Z,2.63
2018-02-25T20:36:55.731Z,3.10
2018-02-25T20:39:21.769Z,3.20
2018-02-25T20:41:47.769Z,2.67
2018-02-25T20:44:13.812Z,3.10
2018-02-25T20:46:39.822Z,2.50
2018-02-25T20:49:05.862Z,3.00
2018-02-25T20:51:32.659Z,2.73
2018-02-25T20:53:59.498Z,2.67
2018-02-25T20:56:25.539Z,2.90
2018-02-25T20:58:51.551Z,2.77
2018-02-25T21:01:17.543Z,2.80
2018-02-25T21:03:43.591Z,2.80
2018-02-25T21:06:09.603Z,2.73
2018-02-25T21:08:35.649Z,2.10
2018-02-25T21:11:01.644Z,3.00
2018-02-25T21:13:27.896Z,2.93
2018-02-25T21:15:53.905Z,3.30
2018-02-25T21:18:19.954Z,2.93
2018-02-25T21:20:46.011Z,2.60
2018-02-25T21:23:12.753Z,2.90
2018-02-25T21:25:38.788Z,3.83
2018-02-25T21:28:04.859Z,4.80
2018-02-25T21:30:32.810Z,4.23
2018-02-25T21:32:59.094Z,4.07
2018-02-25T21:35:25.154Z,2.67
2018-02-25T21:37:51.201Z,2.97
2018-02-25T21:40:17.244Z,3.97
2018-02-25T21:42:43.235Z,3.10
2018-02-25T21:45:09.270Z,3.80
2018-02-25T21:47:35.289Z,2.80
2018-02-25T21:50:01.350Z,3.00
2018-02-25T21:52:27.951Z,2.90
2018-02-25T21:54:56.956Z,3.00
2018-02-25T21:57:29.131Z,2.87
2018-02-25T22:00:01.404Z,2.47
2018-02-25T22:02:33.410Z,3.30
2018-02-25T22:04:59.443Z,3.10
2018-02-25T22:07:25.441Z,3.50
2018-02-25T22:09:51.459Z,3.53
2018-02-25T22:12:17.495Z,3.47
2018-02-25T22:14:43.510Z,3.17
2018-02-25T22:17:09.563Z,3.50
2018-02-25T22:19:35.627Z,3.30
2018-02-25T22:22:01.638Z,3.23
2018-02-25T22:24:27.648Z,3.20
2018-02-25T22:26:53.678Z,3.30
2018-02-25T22:29:20.419Z,3.63
2018-02-25T22:31:46.484Z,2.57
2018-02-25T22:34:12.504Z,3.50
2018-02-25T22:36:38.587Z,3.80
2018-02-25T22:39:04.654Z,3.20
2018-02-25T22:41:30.707Z,3.53
2018-02-25T22:43:56.778Z,3.97
2018-02-25T22:46:22.786Z,3.47
2018-02-25T22:48:48.819Z,3.77
2018-02-25T22:51:14.842Z,3.90
2018-02-25T22:53:40.867Z,3.70
2018-02-25T22:56:06.913Z,3.17
2018-02-25T22:58:32.923Z,3.50
2018-02-25T23:00:59.564Z,4.00
2018-02-25T23:03:25.575Z,4.17
2018-02-25T23:05:51.582Z,3.90
2018-02-25T23:08:17.602Z,4.10
2018-02-25T23:10:43.617Z,4.07
2018-02-25T23:13:09.739Z,3.80
2018-02-25T23:15:35.762Z,4.40
2018-02-25T23:18:01.764Z,3.93
2018-02-25T23:20:27.795Z,4.03
2018-02-25T23:22:53.824Z,4.20
2018-02-25T23:25:19.890Z,4.93
2018-02-25T23:27:45.902Z,3.93
2018-02-25T23:30:12.616Z,4.40
2018-02-25T23:32:38.687Z,4.23
2018-02-25T23:35:04.749Z,4.47
2018-02-25T23:37:30.866Z,4.93
2018-02-25T23:39:56.884Z,3.77
2018-02-25T23:42:22.875Z,4.83
2018-02-25T23:44:48.890Z,4.43
2018-02-25T23:47:14.896Z,4.27
2018-02-25T23:49:40.990Z,5.17
2018-02-25T23:52:07.500Z,4.80
2018-02-25T23:54:33.519Z,5.73
2018-02-25T23:56:59.537Z,5.20
2018-02-25T23:59:25.530Z,4.30
